createdAt,value
2017-08-01T00:00:08.142Z,14.94
2017-08-01T00:00:36.298Z,14.89
2017-08-01T00:01:04.477Z,14.9
2017-08-01T00:01:32.566Z,14.95
2017-08-01T00:02:00.748Z,14.98
2017-08-01T00:02:29.111Z,15.02
2017-08-01T00:02:57.159Z,15.13
2017-08-01T00:03:25.279Z,15.1
2017-08-01T00:03:53.426Z,15.16
2017-08-01T00:04:21.499Z,15.19
2017-08-01T00:04:49.654Z,15.19
2017-08-01T00:05:17.765Z,15.13
2017-08-01T00:05:45.889Z,15.12
2017-08-01T00:06:14.024Z,15.13
2017-08-01T00:06:42.138Z,15.16
2017-08-01T00:07:10.339Z,15.16
2017-08-01T00:07:38.467Z,15.1
2017-08-01T00:08:06.513Z,15.13
2017-08-01T00:08:34.737Z,15.05
2017-08-01T00:09:02.840Z,15.07
2017-08-01T00:09:31.077Z,15.05
2017-08-01T00:09:59.328Z,15.02
2017-08-01T00:10:27.512Z,14.97
2017-08-01T00:10:55.705Z,14.9
2017-08-01T00:11:23.814Z,14.85
2017-08-01T00:11:51.975Z,14.9
2017-08-01T00:12:20.157Z,14.97
2017-08-01T00:12:48.215Z,14.79
2017-08-01T00:13:16.213Z,14.83
2017-08-01T00:13:44.632Z,14.71
2017-08-01T00:14:12.738Z,14.69
2017-08-01T00:14:40.756Z,14.77
2017-08-01T00:15:08.851Z,14.75
2017-08-01T00:15:36.975Z,14.71
2017-08-01T00:16:05.170Z,14.79
2017-08-01T00:16:33.273Z,14.75
2017-08-01T00:17:01.552Z,14.67
2017-08-01T00:17:29.737Z,14.63
2017-08-01T00:17:57.960Z,14.69
2017-08-01T00:18:26.051Z,14.67
2017-08-01T00:18:54.178Z,14.63
2017-08-01T00:19:22.388Z,14.63
2017-08-01T00:19:50.596Z,14.61
2017-08-01T00:20:18.724Z,14.63
2017-08-01T00:20:46.818Z,14.56
2017-08-01T00:21:15.075Z,14.6
2017-08-01T00:21:43.192Z,14.59
2017-08-01T00:22:11.400Z,14.56
2017-08-01T00:22:39.545Z,14.46
2017-08-01T00:23:07.674Z,14.51
2017-08-01T00:23:35.758Z,14.46
2017-08-01T00:24:03.815Z,14.48
2017-08-01T00:24:31.897Z,14.48
2017-08-01T00:25:00.013Z,14.46
2017-08-01T00:25:28.196Z,14.51
2017-08-01T00:25:57.042Z,14.49
2017-08-01T00:26:25.100Z,14.46
2017-08-01T00:26:53.306Z,14.44
2017-08-01T00:27:21.468Z,14.44
2017-08-01T00:27:49.553Z,14.49
2017-08-01T00:28:17.693Z,14.48
2017-08-01T00:28:45.773Z,14.46
2017-08-01T00:29:13.973Z,14.51
2017-08-01T00:29:42.062Z,14.45
2017-08-01T00:30:10.231Z,14.48
2017-08-01T00:30:38.313Z,14.46
2017-08-01T00:31:06.455Z,14.42
2017-08-01T00:31:34.600Z,14.44
2017-08-01T00:32:02.867Z,14.44
2017-08-01T00:32:31.087Z,14.45
2017-08-01T00:32:59.096Z,14.49
2017-08-01T00:33:27.244Z,14.46
2017-08-01T00:33:55.263Z,14.41
2017-08-01T00:34:23.273Z,14.41
2017-08-01T00:34:51.326Z,14.36
2017-08-01T00:35:19.406Z,14.41
2017-08-01T00:35:47.530Z,14.38
2017-08-01T00:36:15.554Z,14.31
2017-08-01T00:36:43.755Z,14.39
2017-08-01T00:37:12.082Z,14.33
2017-08-01T00:37:40.339Z,14.36
2017-08-01T00:38:08.570Z,14.31
2017-08-01T00:38:36.516Z,14.28
2017-08-01T00:39:04.698Z,14.3
2017-08-01T00:39:32.765Z,14.2
2017-08-01T00:40:01.003Z,14.28
2017-08-01T00:40:29.200Z,14.24
2017-08-01T00:40:57.276Z,14.27
2017-08-01T00:41:25.461Z,14.26
2017-08-01T00:41:53.684Z,14.2
2017-08-01T00:42:21.788Z,14.28
2017-08-01T00:42:49.895Z,14.28
2017-08-01T00:43:18.018Z,14.24
2017-08-01T00:43:46.107Z,14.2
2017-08-01T00:44:14.303Z,14.26
2017-08-01T00:44:42.531Z,14.21
2017-08-01T00:45:10.737Z,14.2
2017-08-01T00:45:38.959Z,14.11
2017-08-01T00:46:06.968Z,14.08
2017-08-01T00:46:35.104Z,14.06
2017-08-01T00:47:03.101Z,14.06
2017-08-01T00:47:31.434Z,14.05
2017-08-01T00:47:59.621Z,14.01
2017-08-01T00:48:27.662Z,13.97
2017-08-01T00:48:55.712Z,14.01
2017-08-01T00:49:23.738Z,13.91
2017-08-01T00:49:51.938Z,13.99
2017-08-01T00:50:20.137Z,13.97
2017-08-01T00:50:48.319Z,13.95
2017-08-01T00:51:16.335Z,13.95
2017-08-01T00:51:44.455Z,13.91
2017-08-01T00:52:12.500Z,13.91
2017-08-01T00:52:40.699Z,13.9
2017-08-01T00:53:08.884Z,13.88
2017-08-01T00:53:37.097Z,13.9
2017-08-01T00:54:05.338Z,13.91
2017-08-01T00:54:33.387Z,13.91
2017-08-01T00:55:01.598Z,13.94
2017-08-01T00:55:29.608Z,13.95
2017-08-01T00:55:57.734Z,13.91
2017-08-01T00:56:25.827Z,13.94
2017-08-01T00:56:54.069Z,13.93
2017-08-01T00:57:22.047Z,13.88
2017-08-01T00:57:50.278Z,13.88
2017-08-01T00:58:18.518Z,13.79
2017-08-01T00:58:46.705Z,13.76
2017-08-01T00:59:14.886Z,13.81
2017-08-01T00:59:43.044Z,13.76
2017-08-01T01:00:11.165Z,13.76
2017-08-01T01:00:39.405Z,13.7
2017-08-01T01:01:07.584Z,13.75
2017-08-01T01:01:35.770Z,13.68
2017-08-01T01:02:03.955Z,13.75
2017-08-01T01:02:32.267Z,13.65
2017-08-01T01:03:00.380Z,13.7
2017-08-01T01:03:28.565Z,13.62
2017-08-01T01:03:56.546Z,13.62
2017-08-01T01:04:24.749Z,13.62
2017-08-01T01:04:52.724Z,13.6
2017-08-01T01:05:20.886Z,13.58
2017-08-01T01:05:49.112Z,13.5
2017-08-01T01:06:17.186Z,13.5
2017-08-01T01:06:45.383Z,13.66
2017-08-01T01:07:13.462Z,13.53
2017-08-01T01:07:41.788Z,13.53
2017-08-01T01:08:10.012Z,13.51
2017-08-01T01:08:38.149Z,13.45
2017-08-01T01:09:06.338Z,13.4
2017-08-01T01:09:34.531Z,13.45
2017-08-01T01:10:02.578Z,13.55
2017-08-01T01:10:30.755Z,13.47
2017-08-01T01:10:58.977Z,13.48
2017-08-01T01:11:27.180Z,13.44
2017-08-01T01:11:55.391Z,13.47
2017-08-01T01:12:23.532Z,13.58
2017-08-01T01:12:51.828Z,13.54
2017-08-01T01:13:20.056Z,13.42
2017-08-01T01:13:48.261Z,13.35
2017-08-01T01:14:16.268Z,13.53
2017-08-01T01:14:44.342Z,13.36
2017-08-01T01:15:12.524Z,13.55
2017-08-01T01:15:40.754Z,13.47
2017-08-01T01:16:08.778Z,13.44
2017-08-01T01:16:36.808Z,13.47
2017-08-01T01:17:05.001Z,13.47
2017-08-01T01:17:33.118Z,13.42
2017-08-01T01:18:01.320Z,13.44
2017-08-01T01:18:29.237Z,13.4
2017-08-01T01:18:57.363Z,13.5
2017-08-01T01:19:25.288Z,13.5
2017-08-01T01:19:53.288Z,13.44
2017-08-01T01:20:21.400Z,13.4
2017-08-01T01:20:49.491Z,13.45
2017-08-01T01:21:17.622Z,13.5
2017-08-01T01:21:45.793Z,13.48
2017-08-01T01:22:13.833Z,13.5
2017-08-01T01:22:42.083Z,13.42
2017-08-01T01:23:10.254Z,13.45
2017-08-01T01:23:38.356Z,13.53
2017-08-01T01:24:06.582Z,13.37
2017-08-01T01:24:34.708Z,13.47
2017-08-01T01:25:02.701Z,13.51
2017-08-01T01:25:30.732Z,13.53
2017-08-01T01:25:58.935Z,13.5
2017-08-01T01:26:27.210Z,13.54
2017-08-01T01:26:55.334Z,13.6
2017-08-01T01:27:23.796Z,13.66
2017-08-01T01:27:52.131Z,13.58
2017-08-01T01:28:20.272Z,13.69
2017-08-01T01:28:48.387Z,13.75
2017-08-01T01:29:16.639Z,13.72
2017-08-01T01:29:44.810Z,13.72
2017-08-01T01:30:12.804Z,13.76
2017-08-01T01:30:40.975Z,13.75
2017-08-01T01:31:08.980Z,13.72
2017-08-01T01:31:37.179Z,13.72
2017-08-01T01:32:05.451Z,13.69
2017-08-01T01:32:33.577Z,13.76
2017-08-01T01:33:01.860Z,13.69
2017-08-01T01:33:29.852Z,13.75
2017-08-01T01:33:58.089Z,13.7
2017-08-01T01:34:26.291Z,13.76
2017-08-01T01:34:54.476Z,13.83
2017-08-01T01:35:22.819Z,13.83
2017-08-01T01:35:51.032Z,13.86
2017-08-01T01:36:19.216Z,13.84
2017-08-01T01:36:47.212Z,13.87
2017-08-01T01:37:15.361Z,13.87
2017-08-01T01:37:43.439Z,13.9
2017-08-01T01:38:11.671Z,13.94
2017-08-01T01:38:39.764Z,13.95
2017-08-01T01:39:07.884Z,13.95
2017-08-01T01:39:36.007Z,14.01
2017-08-01T01:40:04.225Z,14.02
2017-08-01T01:40:32.422Z,14.03
2017-08-01T01:41:00.452Z,14.08
2017-08-01T01:41:28.566Z,14.09
2017-08-01T01:41:56.775Z,14.06
2017-08-01T01:42:24.882Z,14.11
2017-08-01T01:42:53.095Z,14.09
2017-08-01T01:43:22.217Z,14.12
2017-08-01T01:43:50.263Z,13.99
2017-08-01T01:44:18.422Z,14.13
2017-08-01T01:44:46.450Z,14.01
2017-08-01T01:45:14.611Z,13.99
2017-08-01T01:45:42.708Z,13.97
2017-08-01T01:46:10.904Z,13.97
2017-08-01T01:46:38.994Z,13.97
2017-08-01T01:47:07.112Z,13.95
2017-08-01T01:47:35.207Z,13.87
2017-08-01T01:48:03.449Z,13.86
2017-08-01T01:48:31.454Z,13.83
2017-08-01T01:48:59.621Z,13.83
2017-08-01T01:49:27.870Z,13.86
2017-08-01T01:49:56.049Z,13.83
2017-08-01T01:50:24.208Z,13.79
2017-08-01T01:50:52.290Z,13.78
2017-08-01T01:51:20.549Z,13.79
2017-08-01T01:51:48.738Z,13.84
2017-08-01T01:52:16.810Z,13.81
2017-08-01T01:52:44.955Z,13.81
2017-08-01T01:53:13.289Z,13.86
2017-08-01T01:53:41.505Z,13.91
2017-08-01T01:54:09.493Z,13.87
2017-08-01T01:54:37.586Z,13.95
2017-08-01T01:55:05.629Z,13.87
2017-08-01T01:55:33.640Z,13.9
2017-08-01T01:56:01.865Z,13.93
2017-08-01T01:56:29.953Z,13.95
2017-08-01T01:56:58.040Z,13.9
2017-08-01T01:57:26.062Z,13.9
2017-08-01T01:57:54.139Z,13.88
2017-08-01T01:58:22.331Z,13.81
2017-08-01T01:58:50.553Z,13.87
2017-08-01T01:59:18.751Z,13.84
2017-08-01T01:59:46.939Z,13.86
2017-08-01T02:00:15.040Z,13.87
2017-08-01T02:00:43.109Z,13.81
2017-08-01T02:01:11.314Z,13.75
2017-08-01T02:01:39.336Z,13.76
2017-08-01T02:02:07.443Z,13.78
2017-08-01T02:02:35.624Z,13.69
2017-08-01T02:03:03.730Z,13.76
2017-08-01T02:03:32.013Z,13.79
2017-08-01T02:04:00.125Z,13.73
2017-08-01T02:04:28.360Z,13.78
2017-08-01T02:04:56.389Z,13.75
2017-08-01T02:05:24.386Z,13.73
2017-08-01T02:05:52.529Z,13.81
2017-08-01T02:06:20.631Z,13.81
2017-08-01T02:06:48.714Z,13.76
2017-08-01T02:07:16.807Z,13.79
2017-08-01T02:07:44.982Z,13.78
2017-08-01T02:08:13.411Z,13.73
2017-08-01T02:08:41.658Z,13.72
2017-08-01T02:09:09.816Z,13.78
2017-08-01T02:09:37.794Z,13.73
2017-08-01T02:10:06.006Z,13.7
2017-08-01T02:10:34.077Z,13.75
2017-08-01T02:11:02.042Z,13.73
2017-08-01T02:11:30.076Z,13.75
2017-08-01T02:11:58.204Z,13.63
2017-08-01T02:12:26.457Z,13.62
2017-08-01T02:12:54.550Z,13.65
2017-08-01T02:13:22.840Z,13.66
2017-08-01T02:13:50.885Z,13.62
2017-08-01T02:14:19.057Z,13.65
2017-08-01T02:14:47.077Z,13.69
2017-08-01T02:15:15.300Z,13.58
2017-08-01T02:15:43.380Z,13.63
2017-08-01T02:16:11.551Z,13.65
2017-08-01T02:16:39.688Z,13.62
2017-08-01T02:17:07.749Z,13.69
2017-08-01T02:17:35.910Z,13.62
2017-08-01T02:18:04.010Z,13.66
2017-08-01T02:18:32.192Z,13.66
2017-08-01T02:19:00.293Z,13.69
2017-08-01T02:19:28.431Z,13.66
2017-08-01T02:19:56.531Z,13.62
2017-08-01T02:20:24.595Z,13.6
2017-08-01T02:20:52.736Z,13.68
2017-08-01T02:21:21.159Z,13.63
2017-08-01T02:21:49.370Z,13.65
2017-08-01T02:22:17.406Z,13.7
2017-08-01T02:22:45.518Z,13.63
2017-08-01T02:23:13.752Z,13.62
2017-08-01T02:23:42.022Z,13.57
2017-08-01T02:24:10.179Z,13.57
2017-08-01T02:24:38.410Z,13.55
2017-08-01T02:25:06.509Z,13.48
2017-08-01T02:25:34.611Z,13.48
2017-08-01T02:26:02.779Z,13.51
2017-08-01T02:26:30.968Z,13.48
2017-08-01T02:26:59.084Z,13.48
2017-08-01T02:27:27.271Z,13.53
2017-08-01T02:27:55.302Z,13.48
2017-08-01T02:28:23.475Z,13.55
2017-08-01T02:28:51.696Z,13.47
2017-08-01T02:29:19.919Z,13.5
2017-08-01T02:29:48.099Z,13.45
2017-08-01T02:30:16.059Z,13.45
2017-08-01T02:30:44.291Z,13.27
2017-08-01T02:31:12.530Z,13.53
2017-08-01T02:31:40.708Z,13.4
2017-08-01T02:32:08.778Z,13.4
2017-08-01T02:32:36.801Z,13.42
2017-08-01T02:33:04.896Z,13.4
2017-08-01T02:33:33.286Z,13.44
2017-08-01T02:34:01.406Z,13.47
2017-08-01T02:34:29.482Z,13.47
2017-08-01T02:34:57.706Z,13.54
2017-08-01T02:35:25.924Z,13.48
2017-08-01T02:35:54.047Z,13.55
2017-08-01T02:36:22.271Z,13.48
2017-08-01T02:36:50.399Z,13.55
2017-08-01T02:37:18.409Z,13.47
2017-08-01T02:37:46.601Z,13.55
2017-08-01T02:38:14.749Z,13.53
2017-08-01T02:38:42.981Z,13.51
2017-08-01T02:39:11.039Z,13.63
2017-08-01T02:39:39.141Z,13.66
2017-08-01T02:40:07.338Z,13.66
2017-08-01T02:40:35.541Z,13.63
2017-08-01T02:41:03.658Z,13.65
2017-08-01T02:41:31.796Z,13.6
2017-08-01T02:41:59.945Z,13.62
2017-08-01T02:42:28.176Z,13.62
2017-08-01T02:42:56.311Z,13.66
2017-08-01T02:43:24.422Z,13.7
2017-08-01T02:43:52.583Z,13.62
2017-08-01T02:44:20.701Z,13.62
2017-08-01T02:44:48.922Z,13.58
2017-08-01T02:45:17.040Z,13.51
2017-08-01T02:45:45.149Z,13.53
2017-08-01T02:46:13.271Z,13.53
2017-08-01T02:46:41.379Z,13.5
2017-08-01T02:47:09.578Z,13.51
2017-08-01T02:47:37.741Z,13.6
2017-08-01T02:48:05.721Z,13.5
2017-08-01T02:48:33.873Z,13.57
2017-08-01T02:49:01.883Z,13.58
2017-08-01T02:49:30.000Z,13.58
2017-08-01T02:49:58.201Z,13.65
2017-08-01T02:50:26.219Z,13.62
2017-08-01T02:50:54.457Z,13.62
2017-08-01T02:51:22.561Z,13.73
2017-08-01T02:51:50.665Z,13.73
2017-08-01T02:52:18.857Z,13.79
2017-08-01T02:52:46.880Z,13.78
2017-08-01T02:53:15.055Z,13.69
2017-08-01T02:53:43.161Z,13.73
2017-08-01T02:54:11.393Z,13.75
2017-08-01T02:54:39.481Z,13.75
2017-08-01T02:55:07.576Z,13.73
2017-08-01T02:55:35.778Z,13.76
2017-08-01T02:56:03.888Z,13.73
2017-08-01T02:56:32.002Z,13.75
2017-08-01T02:57:00.138Z,13.73
2017-08-01T02:57:28.190Z,13.76
2017-08-01T02:57:56.284Z,13.73
2017-08-01T02:58:24.507Z,13.75
2017-08-01T02:58:52.853Z,13.78
2017-08-01T02:59:20.982Z,13.78
2017-08-01T02:59:49.128Z,13.76
2017-08-01T03:00:17.329Z,13.7
2017-08-01T03:00:45.438Z,13.69
2017-08-01T03:01:13.585Z,13.79
2017-08-01T03:01:41.724Z,13.73
2017-08-01T03:02:09.822Z,13.78
2017-08-01T03:02:37.822Z,13.78
2017-08-01T03:03:05.870Z,13.81
2017-08-01T03:03:34.079Z,13.84
2017-08-01T03:04:02.155Z,13.86
2017-08-01T03:04:30.344Z,13.78
2017-08-01T03:04:58.545Z,13.86
2017-08-01T03:05:26.607Z,13.79
2017-08-01T03:05:54.806Z,13.81
2017-08-01T03:06:23.000Z,13.78
2017-08-01T03:06:51.199Z,13.75
2017-08-01T03:07:19.340Z,13.76
2017-08-01T03:07:47.514Z,13.76
2017-08-01T03:08:15.729Z,13.72
2017-08-01T03:08:43.957Z,13.73
2017-08-01T03:09:12.128Z,13.75
2017-08-01T03:09:40.314Z,13.73
2017-08-01T03:10:08.438Z,13.78
2017-08-01T03:10:36.604Z,13.7
2017-08-01T03:11:04.720Z,13.73
2017-08-01T03:11:32.775Z,13.73
2017-08-01T03:12:00.947Z,13.75
2017-08-01T03:12:29.049Z,13.78
2017-08-01T03:12:57.219Z,13.72
2017-08-01T03:13:25.252Z,13.66
2017-08-01T03:13:53.440Z,13.7
2017-08-01T03:14:21.450Z,13.73
2017-08-01T03:14:49.547Z,13.7
2017-08-01T03:15:17.749Z,13.68
2017-08-01T03:15:45.963Z,13.66
2017-08-01T03:16:14.141Z,13.75
2017-08-01T03:16:42.242Z,13.76
2017-08-01T03:17:10.235Z,13.78
2017-08-01T03:17:38.502Z,13.78
2017-08-01T03:18:06.586Z,13.72
2017-08-01T03:18:34.699Z,13.72
2017-08-01T03:19:02.860Z,13.68
2017-08-01T03:19:30.935Z,13.76
2017-08-01T03:19:59.114Z,13.75
2017-08-01T03:20:27.210Z,13.72
2017-08-01T03:20:55.310Z,13.7
2017-08-01T03:21:23.417Z,13.69
2017-08-01T03:21:51.590Z,13.75
2017-08-01T03:22:19.611Z,13.72
2017-08-01T03:22:47.713Z,13.65
2017-08-01T03:23:15.728Z,13.65
2017-08-01T03:23:43.928Z,13.72
2017-08-01T03:24:12.033Z,13.65
2017-08-01T03:24:40.152Z,13.72
2017-08-01T03:25:08.331Z,13.75
2017-08-01T03:25:36.519Z,13.72
2017-08-01T03:26:04.584Z,13.69
2017-08-01T03:26:32.830Z,13.73
2017-08-01T03:27:00.994Z,13.68
2017-08-01T03:27:29.016Z,13.7
2017-08-01T03:27:57.126Z,13.69
2017-08-01T03:28:25.237Z,13.78
2017-08-01T03:28:53.370Z,13.68
2017-08-01T03:29:21.659Z,13.73
2017-08-01T03:29:49.815Z,13.68
2017-08-01T03:30:17.966Z,13.78
2017-08-01T03:30:46.221Z,13.78
2017-08-01T03:31:14.418Z,13.73
2017-08-01T03:31:42.617Z,13.78
2017-08-01T03:32:10.815Z,13.76
2017-08-01T03:32:39.017Z,13.78
2017-08-01T03:33:07.285Z,13.7
2017-08-01T03:33:35.448Z,13.78
2017-08-01T03:34:03.755Z,13.75
2017-08-01T03:34:31.956Z,13.69
2017-08-01T03:35:00.114Z,13.76
2017-08-01T03:35:28.372Z,13.73
2017-08-01T03:35:56.483Z,13.7
2017-08-01T03:36:24.592Z,13.78
2017-08-01T03:36:52.727Z,13.72
2017-08-01T03:37:20.884Z,13.81
2017-08-01T03:37:49.054Z,13.79
2017-08-01T03:38:17.038Z,13.78
2017-08-01T03:38:45.130Z,13.73
2017-08-01T03:39:13.455Z,13.69
2017-08-01T03:39:41.275Z,13.75
2017-08-01T03:40:09.492Z,13.75
2017-08-01T03:40:37.684Z,13.68
2017-08-01T03:41:05.794Z,13.69
2017-08-01T03:41:33.680Z,13.72
2017-08-01T03:42:01.743Z,13.73
2017-08-01T03:42:29.666Z,13.78
2017-08-01T03:42:57.786Z,13.78
2017-08-01T03:43:25.900Z,13.72
2017-08-01T03:43:54.020Z,13.79
2017-08-01T03:44:22.269Z,13.75
2017-08-01T03:44:50.519Z,13.72
2017-08-01T03:45:18.663Z,13.78
2017-08-01T03:45:46.746Z,13.72
2017-08-01T03:46:14.971Z,13.73
2017-08-01T03:46:43.133Z,13.78
2017-08-01T03:47:11.351Z,13.79
2017-08-01T03:47:39.452Z,13.78
2017-08-01T03:48:07.726Z,13.75
2017-08-01T03:48:35.821Z,13.72
2017-08-01T03:49:04.062Z,13.72
2017-08-01T03:49:32.261Z,13.72
2017-08-01T03:50:00.459Z,13.73
2017-08-01T03:50:28.718Z,13.73
2017-08-01T03:50:56.947Z,13.76
2017-08-01T03:51:25.084Z,13.75
2017-08-01T03:51:53.342Z,13.79
2017-08-01T03:52:21.376Z,13.76
2017-08-01T03:52:49.546Z,13.72
2017-08-01T03:53:17.643Z,13.86
2017-08-01T03:53:45.655Z,13.84
2017-08-01T03:54:13.898Z,13.78
2017-08-01T03:54:42.032Z,13.76
2017-08-01T03:55:10.231Z,13.79
2017-08-01T03:55:38.335Z,13.73
2017-08-01T03:56:06.447Z,13.76
2017-08-01T03:56:34.632Z,13.78
2017-08-01T03:57:02.827Z,13.78
2017-08-01T03:57:30.929Z,13.79
2017-08-01T03:57:59.130Z,13.81
2017-08-01T03:58:27.372Z,13.81
2017-08-01T03:58:55.410Z,13.78
2017-08-01T03:59:23.748Z,13.79
2017-08-01T03:59:51.752Z,13.78
2017-08-01T04:00:19.856Z,13.81
2017-08-01T04:00:48.068Z,13.76
2017-08-01T04:01:16.251Z,13.79
2017-08-01T04:01:44.473Z,13.81
2017-08-01T04:02:12.614Z,13.75
2017-08-01T04:02:40.566Z,13.81
2017-08-01T04:03:08.593Z,13.84
2017-08-01T04:03:36.830Z,13.79
2017-08-01T04:04:05.009Z,13.88
2017-08-01T04:04:33.228Z,13.88
2017-08-01T04:05:01.494Z,13.86
2017-08-01T04:05:29.600Z,13.86
2017-08-01T04:05:57.678Z,13.83
2017-08-01T04:06:25.883Z,13.91
2017-08-01T04:06:54.083Z,13.91
2017-08-01T04:07:22.167Z,13.88
2017-08-01T04:07:50.255Z,13.9
2017-08-01T04:08:18.414Z,13.86
2017-08-01T04:08:46.501Z,13.9
2017-08-01T04:09:14.648Z,13.94
2017-08-01T04:09:42.889Z,13.91
2017-08-01T04:10:11.027Z,13.88
2017-08-01T04:10:39.050Z,13.9
2017-08-01T04:11:07.271Z,13.86
2017-08-01T04:11:35.376Z,13.91
2017-08-01T04:12:03.613Z,13.94
2017-08-01T04:12:31.820Z,13.94
2017-08-01T04:13:00.002Z,13.91
2017-08-01T04:13:28.217Z,13.88
2017-08-01T04:13:56.351Z,13.94
2017-08-01T04:14:24.517Z,13.93
2017-08-01T04:14:52.860Z,13.91
2017-08-01T04:15:21.051Z,13.84
2017-08-01T04:15:49.288Z,13.87
2017-08-01T04:16:17.378Z,13.91
2017-08-01T04:16:45.449Z,13.86
2017-08-01T04:17:13.624Z,13.86
2017-08-01T04:17:41.843Z,13.86
2017-08-01T04:18:09.965Z,13.84
2017-08-01T04:18:38.195Z,13.88
2017-08-01T04:19:06.414Z,13.86
2017-08-01T04:19:34.674Z,13.84
2017-08-01T04:20:02.721Z,13.81
2017-08-01T04:20:30.793Z,13.79
2017-08-01T04:20:58.892Z,13.87
2017-08-01T04:21:27.043Z,13.88
2017-08-01T04:21:55.205Z,13.84
2017-08-01T04:22:23.417Z,13.84
2017-08-01T04:22:51.511Z,13.87
2017-08-01T04:23:19.614Z,13.84
2017-08-01T04:23:47.837Z,13.83
2017-08-01T04:24:15.878Z,13.86
2017-08-01T04:24:44.216Z,13.84
2017-08-01T04:25:12.223Z,13.83
2017-08-01T04:25:40.454Z,13.84
2017-08-01T04:26:08.355Z,13.78
2017-08-01T04:26:36.568Z,13.83
2017-08-01T04:27:04.643Z,13.84
2017-08-01T04:27:32.622Z,13.79
2017-08-01T04:28:00.692Z,13.78
2017-08-01T04:28:28.883Z,13.78
2017-08-01T04:28:56.917Z,13.72
2017-08-01T04:29:25.031Z,13.78
2017-08-01T04:29:53.249Z,13.79
2017-08-01T04:30:21.443Z,13.86
2017-08-01T04:30:49.588Z,13.78
2017-08-01T04:31:17.654Z,13.75
2017-08-01T04:31:45.874Z,13.73
2017-08-01T04:32:13.995Z,13.79
2017-08-01T04:32:42.045Z,13.69
2017-08-01T04:33:10.145Z,13.72
2017-08-01T04:33:38.180Z,13.7
2017-08-01T04:34:06.346Z,13.75
2017-08-01T04:34:34.557Z,13.69
2017-08-01T04:35:02.669Z,13.62
2017-08-01T04:35:30.851Z,13.63
2017-08-01T04:35:59.073Z,13.6
2017-08-01T04:36:27.149Z,13.63
2017-08-01T04:36:55.386Z,13.68
2017-08-01T04:37:23.628Z,13.63
2017-08-01T04:37:51.820Z,13.62
2017-08-01T04:38:19.992Z,13.6
2017-08-01T04:38:48.099Z,13.65
2017-08-01T04:39:16.148Z,13.6
2017-08-01T04:39:44.492Z,13.66
2017-08-01T04:40:12.685Z,13.65
2017-08-01T04:40:40.685Z,13.7
2017-08-01T04:41:08.908Z,13.62
2017-08-01T04:41:36.901Z,13.62
2017-08-01T04:42:05.102Z,13.7
2017-08-01T04:42:33.236Z,13.66
2017-08-01T04:43:01.443Z,13.68
2017-08-01T04:43:29.647Z,13.69
2017-08-01T04:43:57.774Z,13.65
2017-08-01T04:44:25.943Z,13.69
2017-08-01T04:44:54.259Z,13.63
2017-08-01T04:45:22.343Z,13.66
2017-08-01T04:45:50.526Z,13.7
2017-08-01T04:46:18.649Z,13.65
2017-08-01T04:46:46.856Z,13.62
2017-08-01T04:47:15.094Z,13.65
2017-08-01T04:47:43.327Z,13.62
2017-08-01T04:48:11.473Z,13.68
2017-08-01T04:48:39.521Z,13.69
2017-08-01T04:49:07.719Z,13.72
2017-08-01T04:49:35.840Z,13.63
2017-08-01T04:50:03.945Z,13.7
2017-08-01T04:50:31.760Z,13.72
2017-08-01T04:50:59.942Z,13.7
2017-08-01T04:51:28.046Z,13.75
2017-08-01T04:51:56.275Z,13.65
2017-08-01T04:52:24.503Z,13.73
2017-08-01T04:52:52.701Z,13.65
2017-08-01T04:53:20.893Z,13.73
2017-08-01T04:53:49.066Z,13.7
2017-08-01T04:54:17.187Z,13.63
2017-08-01T04:54:45.266Z,13.66
2017-08-01T04:55:13.559Z,13.75
2017-08-01T04:55:41.748Z,13.75
2017-08-01T04:56:09.866Z,13.69
2017-08-01T04:56:37.958Z,13.66
2017-08-01T04:57:06.138Z,13.73
2017-08-01T04:57:34.218Z,13.66
2017-08-01T04:58:02.215Z,13.75
2017-08-01T04:58:30.409Z,13.68
2017-08-01T04:58:58.497Z,13.65
2017-08-01T04:59:26.703Z,13.65
2017-08-01T04:59:55.016Z,13.65
2017-08-01T05:00:23.073Z,13.66
2017-08-01T05:00:51.130Z,13.58
2017-08-01T05:01:19.326Z,13.58
2017-08-01T05:01:47.206Z,13.62
2017-08-01T05:02:15.339Z,13.65
2017-08-01T05:02:43.501Z,13.68
2017-08-01T05:03:11.704Z,13.58
2017-08-01T05:03:39.862Z,13.58
2017-08-01T05:04:08.085Z,13.62
2017-08-01T05:04:36.155Z,13.63
2017-08-01T05:05:04.571Z,13.63
2017-08-01T05:05:32.673Z,13.63
2017-08-01T05:06:00.779Z,13.6
2017-08-01T05:06:28.951Z,13.58
2017-08-01T05:06:56.970Z,13.53
2017-08-01T05:07:25.257Z,13.54
2017-08-01T05:07:53.459Z,13.55
2017-08-01T05:08:21.628Z,13.58
2017-08-01T05:08:49.596Z,13.54
2017-08-01T05:09:17.740Z,13.57
2017-08-01T05:09:45.811Z,13.53
2017-08-01T05:10:14.068Z,13.54
2017-08-01T05:10:42.294Z,13.51
2017-08-01T05:11:10.268Z,13.51
2017-08-01T05:11:38.346Z,13.5
2017-08-01T05:12:06.532Z,13.51
2017-08-01T05:12:34.722Z,13.54
2017-08-01T05:13:02.825Z,13.58
2017-08-01T05:13:31.022Z,13.58
2017-08-01T05:13:59.200Z,13.51
2017-08-01T05:14:27.299Z,13.53
2017-08-01T05:14:55.330Z,13.54
2017-08-01T05:15:23.614Z,13.54
2017-08-01T05:15:51.717Z,13.55
2017-08-01T05:16:19.768Z,13.6
2017-08-01T05:16:47.975Z,13.6
2017-08-01T05:17:16.015Z,13.63
2017-08-01T05:17:44.103Z,13.6
2017-08-01T05:18:12.222Z,13.65
2017-08-01T05:18:40.312Z,13.6
2017-08-01T05:19:08.419Z,13.65
2017-08-01T05:19:36.593Z,13.65
2017-08-01T05:20:04.841Z,13.62
2017-08-01T05:20:33.176Z,13.69
2017-08-01T05:21:01.294Z,13.62
2017-08-01T05:21:29.502Z,13.65
2017-08-01T05:21:57.625Z,13.65
2017-08-01T05:22:25.830Z,13.65
2017-08-01T05:22:53.946Z,13.65
2017-08-01T05:23:22.065Z,13.66
2017-08-01T05:23:50.159Z,13.62
2017-08-01T05:24:18.389Z,13.62
2017-08-01T05:24:46.442Z,13.62
2017-08-01T05:25:14.642Z,13.66
2017-08-01T05:25:42.549Z,13.65
2017-08-01T05:26:10.634Z,13.58
2017-08-01T05:26:38.738Z,13.65
2017-08-01T05:27:06.727Z,13.57
2017-08-01T05:27:34.807Z,13.48
2017-08-01T05:28:02.858Z,13.53
2017-08-01T05:28:30.868Z,13.53
2017-08-01T05:28:58.972Z,13.53
2017-08-01T05:29:26.963Z,13.53
2017-08-01T05:29:54.974Z,13.55
2017-08-01T05:30:23.161Z,13.5
2017-08-01T05:30:51.295Z,13.51
2017-08-01T05:31:19.391Z,13.5
2017-08-01T05:31:47.463Z,13.57
2017-08-01T05:32:15.437Z,13.4
2017-08-01T05:32:43.641Z,13.35
2017-08-01T05:33:11.746Z,13.45
2017-08-01T05:33:39.807Z,13.45
2017-08-01T05:34:07.912Z,13.42
2017-08-01T05:34:35.933Z,13.48
2017-08-01T05:35:04.124Z,13.44
2017-08-01T05:35:32.433Z,13.48
2017-08-01T05:36:00.494Z,13.45
2017-08-01T05:36:28.543Z,13.42
2017-08-01T05:36:56.547Z,13.37
2017-08-01T05:37:24.767Z,13.35
2017-08-01T05:37:52.874Z,13.29
2017-08-01T05:38:21.060Z,13.24
2017-08-01T05:38:49.255Z,13.21
2017-08-01T05:39:17.321Z,13.25
2017-08-01T05:39:45.563Z,13.27
2017-08-01T05:40:13.779Z,13.19
2017-08-01T05:40:42.075Z,13.17
2017-08-01T05:41:10.312Z,13.19
2017-08-01T05:41:38.531Z,13.1
2017-08-01T05:42:06.694Z,13.14
2017-08-01T05:42:34.911Z,13.1
2017-08-01T05:43:02.919Z,13.11
2017-08-01T05:43:31.141Z,13.06
2017-08-01T05:43:59.342Z,13.03
2017-08-01T05:44:27.530Z,13.01
2017-08-01T05:44:55.768Z,12.96
2017-08-01T05:45:23.879Z,12.89
2017-08-01T05:45:51.977Z,12.92
2017-08-01T05:46:20.085Z,12.91
2017-08-01T05:46:48.355Z,12.84
2017-08-01T05:47:16.357Z,12.95
2017-08-01T05:47:44.529Z,12.84
2017-08-01T05:48:12.685Z,12.86
2017-08-01T05:48:40.803Z,12.86
2017-08-01T05:49:08.997Z,12.84
2017-08-01T05:49:37.056Z,12.86
2017-08-01T05:50:05.226Z,12.86
2017-08-01T05:50:33.507Z,12.91
2017-08-01T05:51:01.608Z,12.86
2017-08-01T05:51:29.733Z,12.91
2017-08-01T05:51:57.871Z,12.88
2017-08-01T05:52:25.895Z,12.83
2017-08-01T05:52:54.110Z,12.88
2017-08-01T05:53:22.115Z,12.91
2017-08-01T05:53:50.229Z,12.81
2017-08-01T05:54:18.390Z,12.78
2017-08-01T05:54:46.487Z,12.74
2017-08-01T05:55:14.707Z,12.8
2017-08-01T05:55:42.900Z,12.8
2017-08-01T05:56:11.128Z,12.84
2017-08-01T05:56:39.304Z,12.8
2017-08-01T05:57:07.489Z,12.71
2017-08-01T05:57:35.573Z,12.71
2017-08-01T05:58:03.617Z,12.83
2017-08-01T05:58:31.820Z,12.74
2017-08-01T05:58:59.976Z,12.7
2017-08-01T05:59:28.106Z,12.65
2017-08-01T05:59:56.195Z,12.66
2017-08-01T06:00:24.226Z,12.62
2017-08-01T06:00:52.526Z,12.74
2017-08-01T06:01:20.649Z,12.71
2017-08-01T06:01:48.842Z,12.76
2017-08-01T06:02:17.073Z,12.73
2017-08-01T06:02:45.224Z,12.76
2017-08-01T06:03:13.257Z,12.71
2017-08-01T06:03:41.442Z,12.76